Time;durP1;ratioP1;P1;durP2;ratioP2;P2;SDS_P1;SDS_P2;PMS_P1;PMS_P2;Temp;Humidity;BMP_temperature;BMP_pressure;BME280_temperature;BME280_humidity;BME280_pressure;Samples;Min_cycle;Max_cycle;Signal;HPM_P1;HPM_P2
2023/08/06 00:00:43;;;;;;;0.00;0.00;;;;;;;;;;4951166;29;20031;-84
2023/08/06 00:03:09;;;;;;;0.00;0.00;;;;;;;;;;4947932;28;20031;-84
2023/08/06 00:05:35;;;;;;;0.00;0.00;;;;;;;;;;4943938;28;20027;-83
2023/08/06 00:08:02;;;;;;;0.10;0.10;;;;;;;;;;4950532;28;20058;-84
2023/08/06 00:10:28;;;;;;;0.10;0.10;;;;;;;;;;4950942;28;20039;-84
2023/08/06 00:12:54;;;;;;;0.00;0.00;;;;;;;;;;4951090;28;20030;-84
2023/08/06 00:15:20;;;;;;;0.10;0.10;;;;;;;;;;4951089;28;20063;-85
2023/08/06 00:17:46;;;;;;;0.10;0.10;;;;;;;;;;4949824;28;20046;-84
2023/08/06 00:20:12;;;;;;;0.10;0.10;;;;;;;;;;4950961;29;20114;-84
2023/08/06 00:22:38;;;;;;;0.10;0.10;;;;;;;;;;4951318;29;20031;-84
2023/08/06 00:25:05;;;;;;;0.08;0.08;;;;;;;;;;4950849;28;20114;-84
2023/08/06 00:27:32;;;;;;;0.10;0.10;;;;;;;;;;4950887;28;20027;-84
2023/08/06 00:29:58;;;;;;;0.05;0.05;;;;;;;;;;4950549;29;20450;-84
2023/08/06 00:32:24;;;;;;;0.00;0.00;;;;;;;;;;4948918;29;20031;-84
2023/08/06 00:34:50;;;;;;;0.10;0.10;;;;;;;;;;4951133;29;20142;-83
2023/08/06 00:37:19;;;;;;;0.20;0.20;;;;;;;;;;4950783;29;20098;-84
2023/08/06 00:39:45;;;;;;;0.00;0.00;;;;;;;;;;4950749;28;20483;-84
2023/08/06 00:42:11;;;;;;;0.52;0.10;;;;;;;;;;4951295;29;20030;-84
2023/08/06 00:44:38;;;;;;;0.10;0.10;;;;;;;;;;4950383;29;20062;-84
2023/08/06 00:47:04;;;;;;;0.00;0.00;;;;;;;;;;4947889;29;20030;-84
2023/08/06 00:49:30;;;;;;;0.00;0.00;;;;;;;;;;4950689;29;20031;-84
2023/08/06 00:51:57;;;;;;;0.00;0.00;;;;;;;;;;4950436;28;20027;-83
2023/08/06 00:54:24;;;;;;;0.00;0.00;;;;;;;;;;4950826;29;20043;-84
2023/08/06 00:56:50;;;;;;;0.00;0.00;;;;;;;;;;4950452;29;20046;-84
2023/08/06 00:59:16;;;;;;;0.10;0.10;;;;;;;;;;4948786;29;20062;-84
2023/08/06 01:01:42;;;;;;;0.00;0.00;;;;;;;;;;4946382;28;20404;-84
2023/08/06 01:04:08;;;;;;;0.00;0.00;;;;;;;;;;4930904;29;20084;-83
2023/08/06 01:06:44;;;;;;;0.00;0.00;;;;;;;;;;4945881;28;20035;-84
2023/08/06 01:09:17;;;;;;;0.00;0.00;;;;;;;;;;4949389;29;20065;-84
2023/08/06 01:11:43;;;;;;;0.20;0.20;;;;;;;;;;4950418;29;20107;-84
2023/08/06 01:14:13;;;;;;;0.08;0.08;;;;;;;;;;4949943;29;20118;-84
2023/08/06 01:16:40;;;;;;;0.00;0.00;;;;;;;;;;4949137;29;20062;-84
2023/08/06 01:19:06;;;;;;;0.00;0.00;;;;;;;;;;4930399;29;20088;-83
2023/08/06 01:21:32;;;;;;;0.10;0.10;;;;;;;;;;4934371;29;20464;-84
2023/08/06 01:23:57;;;;;;;0.00;0.00;;;;;;;;;;4942709;28;20061;-84
2023/08/06 01:26:23;;;;;;;0.10;0.10;;;;;;;;;;4953571;29;20066;-84
2023/08/06 01:28:53;;;;;;;0.00;0.00;;;;;;;;;;4953071;29;20070;-84
2023/08/06 01:31:22;;;;;;;0.10;0.10;;;;;;;;;;4952452;29;20091;-84
2023/08/06 01:33:49;;;;;;;0.10;0.10;;;;;;;;;;4934186;29;20428;-84
2023/08/06 01:36:19;;;;;;;0.10;0.10;;;;;;;;;;4934355;29;20028;-84
2023/08/06 01:38:45;;;;;;;0.00;0.00;;;;;;;;;;4934321;29;20568;-84
2023/08/06 01:41:11;;;;;;;0.00;0.00;;;;;;;;;;4934592;29;20526;-84
2023/08/06 01:43:37;;;;;;;0.00;0.00;;;;;;;;;;4933935;29;20032;-84
2023/08/06 01:46:03;;;;;;;0.05;0.05;;;;;;;;;;4934075;29;20032;-83
2023/08/06 01:48:29;;;;;;;0.10;0.10;;;;;;;;;;4935131;29;20035;-84
2023/08/06 01:50:55;;;;;;;0.00;0.00;;;;;;;;;;4934067;29;20465;-84
2023/08/06 01:53:21;;;;;;;0.10;0.10;;;;;;;;;;4933807;29;20082;-83
2023/08/06 01:55:50;;;;;;;0.00;0.00;;;;;;;;;;4934065;29;20066;-84
2023/08/06 01:58:16;;;;;;;0.00;0.00;;;;;;;;;;4933529;29;20170;-84
2023/08/06 02:00:42;;;;;;;0.10;0.10;;;;;;;;;;4933895;29;20028;-84
2023/08/06 02:03:08;;;;;;;0.08;0.08;;;;;;;;;;4948425;29;20025;-84
2023/08/06 02:05:34;;;;;;;0.00;0.00;;;;;;;;;;4951455;28;20035;-83
2023/08/06 02:08:00;;;;;;;0.10;0.10;;;;;;;;;;4952854;29;20066;-83
2023/08/06 02:10:26;;;;;;;0.05;0.05;;;;;;;;;;4952834;29;20027;-83
2023/08/06 02:12:52;;;;;;;0.10;0.10;;;;;;;;;;4953205;29;20054;-84
2023/08/06 02:15:18;;;;;;;0.13;0.13;;;;;;;;;;4952630;29;20138;-84
2023/08/06 02:17:44;;;;;;;0.00;0.00;;;;;;;;;;4982673;28;20440;-84
2023/08/06 02:20:10;;;;;;;0.00;0.00;;;;;;;;;;5034092;28;20041;-84
2023/08/06 02:22:36;;;;;;;0.10;0.10;;;;;;;;;;5034223;28;20477;-84
2023/08/06 02:25:02;;;;;;;0.30;0.30;;;;;;;;;;4963316;28;20031;-84
2023/08/06 02:27:28;;;;;;;0.10;0.10;;;;;;;;;;4952279;29;20391;-84
2023/08/06 02:29:54;;;;;;;0.05;0.05;;;;;;;;;;4952566;29;20031;-84
2023/08/06 02:32:20;;;;;;;0.00;0.00;;;;;;;;;;4949698;28;20399;-83
2023/08/06 02:34:46;;;;;;;0.17;0.17;;;;;;;;;;4948557;28;20032;-84
2023/08/06 02:37:12;;;;;;;0.05;0.05;;;;;;;;;;4933445;29;20024;-84
2023/08/06 02:39:39;;;;;;;0.20;0.20;;;;;;;;;;4933868;29;20472;-84
2023/08/06 02:42:07;;;;;;;0.03;0.03;;;;;;;;;;4932998;29;20024;-83
2023/08/06 02:44:33;;;;;;;0.03;0.03;;;;;;;;;;4933458;29;20031;-84
2023/08/06 02:46:59;;;;;;;0.10;0.10;;;;;;;;;;4935638;29;20046;-84
2023/08/06 02:49:25;;;;;;;0.00;0.00;;;;;;;;;;4952289;28;20506;-84
2023/08/06 02:51:51;;;;;;;0.05;0.03;;;;;;;;;;4952306;28;20024;-84
2023/08/06 02:54:18;;;;;;;0.10;0.10;;;;;;;;;;4952185;28;20046;-84
2023/08/06 02:56:44;;;;;;;0.10;0.10;;;;;;;;;;4952307;28;20380;-83
2023/08/06 02:59:11;;;;;;;0.20;0.20;;;;;;;;;;4950915;28;20174;-84
2023/08/06 03:01:37;;;;;;;0.20;0.20;;;;;;;;;;4949539;28;20031;-84
2023/08/06 03:04:03;;;;;;;0.00;0.00;;;;;;;;;;4933330;29;20031;-84
2023/08/06 03:06:29;;;;;;;0.00;0.00;;;;;;;;;;4949567;28;20031;-84
2023/08/06 03:08:55;;;;;;;0.10;0.10;;;;;;;;;;4952419;29;20034;-83
2023/08/06 03:11:21;;;;;;;0.00;0.00;;;;;;;;;;4956042;28;20027;-84
2023/08/06 03:13:50;;;;;;;0.10;0.10;;;;;;;;;;4952458;28;20084;-84
2023/08/06 03:16:16;;;;;;;0.08;0.08;;;;;;;;;;4951651;28;20051;-83
2023/08/06 03:18:42;;;;;;;0.10;0.10;;;;;;;;;;4950835;28;20410;-84
2023/08/06 03:21:08;;;;;;;0.10;0.10;;;;;;;;;;4951877;28;20034;-84
2023/08/06 03:23:34;;;;;;;0.10;0.10;;;;;;;;;;4951743;28;20035;-84
2023/08/06 03:26:03;;;;;;;0.20;0.20;;;;;;;;;;4951353;29;20069;-83
2023/08/06 03:28:29;;;;;;;0.00;0.00;;;;;;;;;;4951834;29;20510;-84
2023/08/06 03:31:01;;;;;;;0.10;0.10;;;;;;;;;;4951601;29;20050;-84
2023/08/06 03:33:27;;;;;;;0.10;0.10;;;;;;;;;;4951231;29;20126;-84
2023/08/06 03:35:53;;;;;;;0.10;0.10;;;;;;;;;;4951577;29;20027;-84
2023/08/06 03:38:19;;;;;;;0.00;0.00;;;;;;;;;;4951645;29;20499;-83
2023/08/06 03:40:46;;;;;;;0.10;0.10;;;;;;;;;;4950429;29;20027;-84
2023/08/06 03:43:12;;;;;;;0.10;0.10;;;;;;;;;;4951498;29;20483;-84
2023/08/06 03:45:38;;;;;;;0.08;0.08;;;;;;;;;;4950594;29;20475;-83
2023/08/06 03:48:04;;;;;;;0.13;0.10;;;;;;;;;;4947190;28;20504;-84
2023/08/06 03:50:30;;;;;;;0.00;0.00;;;;;;;;;;4932485;29;20380;-84
2023/08/06 03:52:56;;;;;;;0.10;0.10;;;;;;;;;;4932242;29;20030;-83
2023/08/06 03:55:22;;;;;;;0.00;0.00;;;;;;;;;;4932394;29;20070;-84
2023/08/06 03:57:48;;;;;;;0.00;0.00;;;;;;;;;;4932257;29;20502;-83
2023/08/06 04:00:14;;;;;;;0.10;0.10;;;;;;;;;;4932191;29;20031;-84
2023/08/06 04:02:40;;;;;;;0.00;0.00;;;;;;;;;;4941901;29;20059;-84
2023/08/06 04:05:07;;;;;;;0.32;0.32;;;;;;;;;;4939055;28;20089;-84
2023/08/06 04:07:32;;;;;;;0.10;0.10;;;;;;;;;;4950897;29;20031;-83
2023/08/06 04:09:59;;;;;;;0.00;0.00;;;;;;;;;;4951168;29;20027;-84
2023/08/06 04:12:26;;;;;;;0.10;0.10;;;;;;;;;;4951660;28;20051;-83
2023/08/06 04:14:52;;;;;;;0.00;0.00;;;;;;;;;;4950740;28;20047;-83
2023/08/06 04:17:22;;;;;;;0.00;0.00;;;;;;;;;;4953151;28;20036;-84
2023/08/06 04:19:51;;;;;;;0.10;0.10;;;;;;;;;;4950695;28;20040;-84
2023/08/06 04:22:17;;;;;;;0.10;0.10;;;;;;;;;;4951296;28;20110;-84
2023/08/06 04:24:44;;;;;;;0.00;0.00;;;;;;;;;;4946516;28;20028;-84
2023/08/06 04:27:10;;;;;;;0.00;0.00;;;;;;;;;;4932446;29;20024;-83
2023/08/06 04:29:36;;;;;;;1.20;0.88;;;;;;;;;;4931999;29;20032;-83
2023/08/06 04:32:04;;;;;;;0.25;0.10;;;;;;;;;;4931812;29;20522;-84
2023/08/06 04:34:30;;;;;;;1.10;0.47;;;;;;;;;;4932106;29;20103;-83
2023/08/06 04:36:56;;;;;;;0.08;0.08;;;;;;;;;;4931647;29;20491;-83
2023/08/06 04:39:22;;;;;;;9.75;0.93;;;;;;;;;;4931829;29;20035;-83
2023/08/06 04:41:48;;;;;;;0.00;0.00;;;;;;;;;;4954713;28;20548;-83
2023/08/06 04:44:14;;;;;;;0.13;0.13;;;;;;;;;;4949466;28;20039;-83
2023/08/06 04:46:40;;;;;;;0.10;0.10;;;;;;;;;;4950639;29;20028;-83
2023/08/06 04:49:06;;;;;;;0.00;0.00;;;;;;;;;;4950769;28;20031;-83
2023/08/06 04:51:32;;;;;;;0.00;0.00;;;;;;;;;;4935429;29;20035;-84
2023/08/06 04:53:58;;;;;;;0.32;0.32;;;;;;;;;;4932142;29;20130;-83
2023/08/06 04:56:24;;;;;;;0.10;0.10;;;;;;;;;;4934597;29;20044;-83
2023/08/06 04:58:50;;;;;;;0.00;0.00;;;;;;;;;;4935382;29;20059;-83
2023/08/06 05:01:16;;;;;;;0.00;0.00;;;;;;;;;;4934911;29;20028;-84
2023/08/06 05:03:42;;;;;;;0.00;0.00;;;;;;;;;;4934777;29;20028;-83
2023/08/06 05:06:08;;;;;;;0.00;0.00;;;;;;;;;;4946203;28;20109;-83
2023/08/06 05:08:34;;;;;;;0.00;0.00;;;;;;;;;;4953990;29;20038;-84
2023/08/06 05:11:00;;;;;;;0.47;0.47;;;;;;;;;;4951596;29;20046;-83
2023/08/06 05:13:26;;;;;;;0.00;0.00;;;;;;;;;;4953145;29;20070;-83
2023/08/06 05:15:55;;;;;;;0.00;0.00;;;;;;;;;;4953488;29;20486;-84
2023/08/06 05:18:21;;;;;;;0.25;0.25;;;;;;;;;;4953732;29;20157;-83
2023/08/06 05:20:48;;;;;;;0.10;0.10;;;;;;;;;;4953529;29;20114;-84
2023/08/06 05:23:14;;;;;;;0.00;0.00;;;;;;;;;;4954003;28;20027;-83
2023/08/06 05:25:40;;;;;;;0.10;0.10;;;;;;;;;;5000029;28;20026;-83
2023/08/06 05:28:06;;;;;;;0.10;0.10;;;;;;;;;;5034982;28;20055;-83
2023/08/06 05:30:32;;;;;;;0.00;0.00;;;;;;;;;;5034946;28;20049;-83
2023/08/06 05:32:58;;;;;;;0.05;0.05;;;;;;;;;;5034838;28;20129;-84
2023/08/06 05:35:24;;;;;;;0.00;0.00;;;;;;;;;;5034528;28;20021;-83
2023/08/06 05:37:50;;;;;;;0.00;0.00;;;;;;;;;;5034812;28;20398;-84
2023/08/06 05:40:16;;;;;;;0.22;0.22;;;;;;;;;;5008189;28;20034;-84
2023/08/06 05:42:42;;;;;;;0.00;0.00;;;;;;;;;;4953887;28;20066;-82
2023/08/06 05:45:09;;;;;;;0.00;0.00;;;;;;;;;;4953449;28;20499;-86
2023/08/06 05:47:35;;;;;;;0.00;0.00;;;;;;;;;;4953360;28;20395;-86
2023/08/06 05:50:01;;;;;;;0.10;0.10;;;;;;;;;;4953298;29;20031;-85
2023/08/06 05:52:27;;;;;;;0.00;0.00;;;;;;;;;;4953448;28;20027;-85
2023/08/06 05:54:55;;;;;;;0.00;0.00;;;;;;;;;;4951219;29;20043;-86
2023/08/06 05:57:20;;;;;;;0.00;0.00;;;;;;;;;;4953388;28;20038;-85
2023/08/06 05:59:47;;;;;;;0.10;0.10;;;;;;;;;;4953386;29;20031;-87
2023/08/06 06:02:13;;;;;;;0.52;0.52;;;;;;;;;;4953323;29;20023;-86
2023/08/06 06:04:39;;;;;;;0.20;0.20;;;;;;;;;;4951787;28;20027;-86
2023/08/06 06:07:05;;;;;;;0.52;0.47;;;;;;;;;;4951930;28;20069;-86
2023/08/06 06:09:31;;;;;;;0.08;0.08;;;;;;;;;;4952985;29;20103;-86
2023/08/06 06:11:57;;;;;;;0.45;0.35;;;;;;;;;;4950235;29;20436;-86
2023/08/06 06:14:23;;;;;;;1.17;0.20;;;;;;;;;;4953048;28;20066;-86
2023/08/06 06:16:49;;;;;;;0.40;0.40;;;;;;;;;;4952767;28;20062;-85
2023/08/06 06:19:15;;;;;;;0.20;0.20;;;;;;;;;;4953079;28;20066;-86
2023/08/06 06:21:41;;;;;;;0.20;0.20;;;;;;;;;;4953139;28;20447;-86
2023/08/06 06:24:08;;;;;;;0.20;0.20;;;;;;;;;;4952660;28;20407;-86
2023/08/06 06:26:34;;;;;;;0.00;0.00;;;;;;;;;;4954102;28;20137;-86
2023/08/06 06:29:00;;;;;;;0.20;0.20;;;;;;;;;;4952726;28;20499;-86
2023/08/06 06:31:26;;;;;;;0.25;0.17;;;;;;;;;;4952884;28;20035;-86
2023/08/06 06:33:54;;;;;;;0.08;0.08;;;;;;;;;;4952305;28;20391;-85
2023/08/06 06:36:20;;;;;;;0.30;0.30;;;;;;;;;;4952897;28;20051;-86
2023/08/06 06:38:46;;;;;;;0.10;0.10;;;;;;;;;;4952602;28;20397;-86
2023/08/06 06:41:12;;;;;;;0.05;0.05;;;;;;;;;;4950623;28;20042;-86
2023/08/06 06:43:39;;;;;;;0.88;0.20;;;;;;;;;;4943738;28;20035;-86
2023/08/06 06:46:05;;;;;;;0.10;0.10;;;;;;;;;;4933334;29;20040;-86
2023/08/06 06:48:32;;;;;;;0.00;0.00;;;;;;;;;;4933085;29;20030;-85
2023/08/06 06:50:59;;;;;;;3.00;0.25;;;;;;;;;;4933504;29;20032;-86
2023/08/06 06:53:27;;;;;;;0.10;0.10;;;;;;;;;;4932296;29;20471;-86
2023/08/06 06:55:57;;;;;;;0.10;0.10;;;;;;;;;;4944763;29;20067;-86
2023/08/06 06:58:23;;;;;;;0.13;0.13;;;;;;;;;;4952613;29;20027;-86
2023/08/06 07:00:49;;;;;;;0.10;0.10;;;;;;;;;;4952434;29;20031;-86
2023/08/06 07:03:15;;;;;;;0.10;0.10;;;;;;;;;;4950758;29;20027;-86
2023/08/06 07:05:42;;;;;;;0.20;0.20;;;;;;;;;;4950815;28;20466;-85
2023/08/06 07:08:08;;;;;;;0.22;0.22;;;;;;;;;;4952112;28;20287;-86
2023/08/06 07:10:34;;;;;;;2.85;0.20;;;;;;;;;;4945570;29;20399;-85
2023/08/06 07:13:00;;;;;;;0.10;0.10;;;;;;;;;;4948940;29;20054;-85
2023/08/06 07:15:26;;;;;;;0.10;0.10;;;;;;;;;;4951883;28;20089;-85
2023/08/06 07:17:52;;;;;;;0.00;0.00;;;;;;;;;;4951257;28;20459;-85
2023/08/06 07:20:18;;;;;;;0.00;0.00;;;;;;;;;;4934127;29;20063;-85
2023/08/06 07:22:45;;;;;;;0.08;0.08;;;;;;;;;;4932843;29;20035;-86
2023/08/06 07:25:11;;;;;;;0.52;0.25;;;;;;;;;;4946862;28;20106;-85
2023/08/06 07:27:37;;;;;;;0.10;0.10;;;;;;;;;;4951973;29;20047;-85
2023/08/06 07:30:05;;;;;;;0.20;0.20;;;;;;;;;;4951731;29;20050;-86
2023/08/06 07:32:31;;;;;;;0.13;0.13;;;;;;;;;;4951603;28;20076;-86
2023/08/06 07:35:00;;;;;;;0.00;0.00;;;;;;;;;;4951845;28;20485;-86
2023/08/06 07:37:28;;;;;;;0.00;0.00;;;;;;;;;;4951486;29;20023;-85
2023/08/06 07:39:54;;;;;;;0.43;0.40;;;;;;;;;;4949788;29;20373;-85
2023/08/06 07:42:20;;;;;;;0.00;0.00;;;;;;;;;;4932680;29;20031;-86
2023/08/06 07:44:55;;;;;;;0.00;0.00;;;;;;;;;;4931357;29;20043;-86
2023/08/06 07:47:20;;;;;;;0.00;0.00;;;;;;;;;;4932404;29;20396;-85
2023/08/06 07:49:46;;;;;;;0.03;0.03;;;;;;;;;;4932892;29;20024;-86
2023/08/06 07:52:13;;;;;;;0.40;0.40;;;;;;;;;;4933108;29;20031;-86
2023/08/06 07:54:39;;;;;;;0.00;0.00;;;;;;;;;;4939372;28;20082;-88
2023/08/06 07:57:05;;;;;;;0.00;0.00;;;;;;;;;;4933508;29;20028;-86
2023/08/06 07:59:31;;;;;;;0.00;0.00;;;;;;;;;;4930768;29;20028;-84
2023/08/06 08:01:57;;;;;;;0.00;0.00;;;;;;;;;;4942654;29;20027;-83
2023/08/06 08:04:24;;;;;;;0.00;0.00;;;;;;;;;;4954816;28;20046;-84
2023/08/06 08:06:50;;;;;;;0.00;0.00;;;;;;;;;;4954769;28;20478;-85
2023/08/06 08:09:16;;;;;;;0.00;0.00;;;;;;;;;;4958764;28;20035;-89
2023/08/06 08:11:42;;;;;;;0.03;0.03;;;;;;;;;;4998227;28;20025;-85
2023/08/06 08:14:08;;;;;;;0.00;0.00;;;;;;;;;;5041618;28;20037;-85
2023/08/06 08:16:34;;;;;;;0.10;0.10;;;;;;;;;;4969697;28;20137;-87
2023/08/06 08:19:01;;;;;;;0.00;0.00;;;;;;;;;;4964468;28;20043;-88
2023/08/06 08:21:27;;;;;;;0.08;0.08;;;;;;;;;;4950858;29;20028;-86
2023/08/06 08:23:53;;;;;;;0.10;0.10;;;;;;;;;;4950291;28;20027;-85
2023/08/06 08:26:19;;;;;;;0.00;0.00;;;;;;;;;;4950924;28;20032;-85
2023/08/06 08:28:45;;;;;;;0.10;0.10;;;;;;;;;;4950020;28;20133;-86
2023/08/06 08:31:11;;;;;;;0.15;0.15;;;;;;;;;;4954267;28;20031;-86
2023/08/06 08:33:38;;;;;;;0.15;0.15;;;;;;;;;;4954136;28;20032;-86
2023/08/06 08:36:04;;;;;;;0.00;0.00;;;;;;;;;;4953925;28;20036;-84
2023/08/06 08:38:31;;;;;;;0.00;0.00;;;;;;;;;;4963798;28;20038;-86
2023/08/06 08:40:57;;;;;;;0.15;0.08;;;;;;;;;;4949722;28;20032;-83
2023/08/06 08:43:23;;;;;;;0.10;0.10;;;;;;;;;;4934803;28;20027;-87
2023/08/06 08:45:54;;;;;;;0.10;0.10;;;;;;;;;;4938944;28;20125;-84
2023/08/06 08:48:20;;;;;;;0.10;0.10;;;;;;;;;;4949813;28;20037;-83
2023/08/06 08:50:47;;;;;;;0.10;0.10;;;;;;;;;;4973368;28;20023;-83
2023/08/06 08:53:14;;;;;;;0.00;0.00;;;;;;;;;;4959310;28;20507;-83
2023/08/06 08:55:41;;;;;;;0.10;0.10;;;;;;;;;;4962889;28;20027;-84
2023/08/06 08:58:07;;;;;;;0.00;0.00;;;;;;;;;;5051410;28;20017;-83
2023/08/06 09:00:33;;;;;;;0.13;0.13;;;;;;;;;;4984104;28;20039;-82
2023/08/06 09:02:59;;;;;;;0.55;0.47;;;;;;;;;;4954350;28;20030;-83
2023/08/06 09:05:28;;;;;;;0.00;0.00;;;;;;;;;;4958288;28;20039;-83
2023/08/06 09:07:55;;;;;;;0.15;0.15;;;;;;;;;;4980407;28;20052;-81
2023/08/06 09:10:23;;;;;;;0.20;0.20;;;;;;;;;;4981610;28;20498;-82
2023/08/06 09:12:49;;;;;;;0.00;0.00;;;;;;;;;;4953341;29;20023;-82
2023/08/06 09:15:15;;;;;;;0.65;0.08;;;;;;;;;;4934122;29;20048;-83
2023/08/06 09:17:41;;;;;;;0.20;0.20;;;;;;;;;;4933754;29;20393;-83
2023/08/06 09:20:14;;;;;;;0.10;0.10;;;;;;;;;;4934469;29;20024;-83
2023/08/06 09:22:41;;;;;;;0.43;0.43;;;;;;;;;;4934539;29;20036;-84
2023/08/06 09:25:11;;;;;;;0.63;0.20;;;;;;;;;;4950004;28;20046;-82
2023/08/06 09:27:37;;;;;;;0.10;0.10;;;;;;;;;;4944988;29;20111;-82
2023/08/06 09:30:04;;;;;;;0.00;0.00;;;;;;;;;;4937143;28;20023;-83
2023/08/06 09:32:59;;;;;;;0.10;0.10;;;;;;;;;;4963127;28;20027;-82
2023/08/06 09:35:28;;;;;;;0.08;0.08;;;;;;;;;;4948304;28;20044;-83
2023/08/06 09:37:54;;;;;;;0.10;0.10;;;;;;;;;;4936440;29;20063;-81
2023/08/06 09:40:32;;;;;;;0.20;0.20;;;;;;;;;;4933568;29;20507;-83
2023/08/06 09:42:59;;;;;;;0.10;0.10;;;;;;;;;;4933311;29;20089;-84
2023/08/06 09:45:32;;;;;;;0.10;0.10;;;;;;;;;;4933353;29;20411;-83
2023/08/06 09:47:59;;;;;;;0.03;0.03;;;;;;;;;;4933623;28;20036;-83
2023/08/06 09:50:32;;;;;;;0.00;0.00;;;;;;;;;;4933778;28;20028;-83
2023/08/06 09:52:59;;;;;;;0.15;0.15;;;;;;;;;;4964635;28;20027;-83
2023/08/06 09:55:28;;;;;;;0.10;0.10;;;;;;;;;;4951667;29;20400;-82
2023/08/06 09:57:55;;;;;;;0.10;0.10;;;;;;;;;;4954287;28;20376;-83
2023/08/06 10:00:22;;;;;;;0.00;0.00;;;;;;;;;;4972715;28;20022;-83
2023/08/06 10:02:49;;;;;;;0.00;0.00;;;;;;;;;;4971818;28;20035;-83
2023/08/06 10:05:16;;;;;;;0.08;0.08;;;;;;;;;;4961982;28;20122;-82
2023/08/06 10:07:44;;;;;;;0.00;0.00;;;;;;;;;;4933612;28;20353;-81
2023/08/06 10:10:10;;;;;;;0.03;0.03;;;;;;;;;;4955312;28;20553;-83
2023/08/06 10:12:39;;;;;;;0.28;0.28;;;;;;;;;;4958333;28;20030;-83
2023/08/06 10:15:07;;;;;;;0.13;0.13;;;;;;;;;;4970934;28;20069;-83
2023/08/06 10:17:33;;;;;;;0.00;0.00;;;;;;;;;;4965328;28;20042;-82
2023/08/06 10:20:00;;;;;;;0.10;0.10;;;;;;;;;;4952027;28;20525;-82
2023/08/06 10:22:27;;;;;;;0.05;0.05;;;;;;;;;;4938740;28;20077;-82
2023/08/06 10:24:56;;;;;;;0.10;0.10;;;;;;;;;;4948104;28;20027;-82
2023/08/06 10:27:22;;;;;;;0.00;0.00;;;;;;;;;;4952068;29;20438;-83
2023/08/06 10:29:50;;;;;;;0.00;0.00;;;;;;;;;;4959307;28;20039;-83
2023/08/06 10:32:18;;;;;;;0.10;0.10;;;;;;;;;;4960859;28;20440;-81
2023/08/06 10:35:00;;;;;;;0.10;0.10;;;;;;;;;;4952225;29;20168;-83
2023/08/06 10:37:35;;;;;;;0.00;0.00;;;;;;;;;;4952395;28;20106;-81
2023/08/06 10:40:02;;;;;;;0.17;0.17;;;;;;;;;;4951554;29;20616;-82
2023/08/06 10:42:28;;;;;;;0.20;0.20;;;;;;;;;;4952276;28;20111;-82
2023/08/06 10:45:14;;;;;;;0.00;0.00;;;;;;;;;;4951440;28;20051;-85
2023/08/06 10:47:40;;;;;;;0.10;0.10;;;;;;;;;;4943668;28;20400;-86
2023/08/06 10:50:08;;;;;;;0.20;0.20;;;;;;;;;;5015978;28;20116;-85
2023/08/06 10:52:34;;;;;;;0.00;0.00;;;;;;;;;;4938653;28;20130;-86
2023/08/06 10:55:00;;;;;;;0.00;0.00;;;;;;;;;;4947727;29;20036;-85
2023/08/06 10:57:26;;;;;;;0.00;0.00;;;;;;;;;;4938120;28;20043;-85
2023/08/06 10:59:52;;;;;;;0.13;0.13;;;;;;;;;;4941169;29;20032;-86
2023/08/06 11:02:18;;;;;;;0.00;0.00;;;;;;;;;;4939196;29;20031;-86
2023/08/06 11:04:44;;;;;;;0.00;0.00;;;;;;;;;;4950597;28;20028;-87
2023/08/06 11:07:10;;;;;;;0.00;0.00;;;;;;;;;;4952047;28;20542;-86
2023/08/06 11:09:37;;;;;;;0.00;0.00;;;;;;;;;;4940270;29;20500;-87
2023/08/06 11:12:06;;;;;;;0.13;0.13;;;;;;;;;;4949985;29;20089;-88
2023/08/06 11:14:32;;;;;;;0.10;0.10;;;;;;;;;;4944587;28;20129;-83
2023/08/06 11:16:58;;;;;;;0.15;0.15;;;;;;;;;;4938510;29;20511;-83
2023/08/06 11:19:24;;;;;;;0.45;0.40;;;;;;;;;;4958244;28;20032;-84
2023/08/06 11:21:51;;;;;;;0.00;0.00;;;;;;;;;;4957535;28;20050;-91
2023/08/06 11:24:17;;;;;;;0.00;0.00;;;;;;;;;;4944248;28;20067;-84
2023/08/06 11:26:44;;;;;;;0.20;0.20;;;;;;;;;;4932422;29;20087;-84
2023/08/06 11:29:10;;;;;;;0.20;0.20;;;;;;;;;;4953145;28;20066;-85
2023/08/06 11:31:36;;;;;;;0.00;0.00;;;;;;;;;;4960888;28;20032;-83
2023/08/06 11:34:03;;;;;;;0.65;0.57;;;;;;;;;;4974985;28;20035;-82
2023/08/06 11:36:32;;;;;;;0.13;0.10;;;;;;;;;;4951929;28;20027;-83
2023/08/06 11:39:02;;;;;;;0.43;0.43;;;;;;;;;;5019434;28;20039;-86
2023/08/06 11:41:29;;;;;;;0.10;0.10;;;;;;;;;;4977435;28;20448;-81
2023/08/06 11:43:55;;;;;;;0.03;0.03;;;;;;;;;;4985502;28;20036;-83
2023/08/06 11:46:23;;;;;;;0.03;0.03;;;;;;;;;;4965738;28;20387;-86
2023/08/06 11:48:52;;;;;;;0.80;0.55;;;;;;;;;;4969686;28;20027;-83
2023/08/06 11:51:20;;;;;;;0.00;0.00;;;;;;;;;;5027453;28;20062;-80
2023/08/06 11:53:49;;;;;;;0.10;0.10;;;;;;;;;;4947195;28;20081;-87
2023/08/06 11:56:16;;;;;;;0.00;0.00;;;;;;;;;;4931115;29;20110;-83
2023/08/06 11:58:42;;;;;;;0.10;0.10;;;;;;;;;;4941388;28;20031;-83
2023/08/06 12:01:08;;;;;;;0.10;0.10;;;;;;;;;;4950511;28;20059;-83
2023/08/06 12:03:39;;;;;;;0.10;0.10;;;;;;;;;;4948947;28;20024;-88
2023/08/06 12:06:08;;;;;;;0.00;0.00;;;;;;;;;;4938343;28;20109;-81
2023/08/06 12:08:34;;;;;;;0.17;0.10;;;;;;;;;;4952969;28;20031;-82
2023/08/06 12:11:00;;;;;;;0.15;0.10;;;;;;;;;;4984145;28;20494;-82
2023/08/06 12:13:26;;;;;;;0.00;0.00;;;;;;;;;;4941342;28;20117;-82
2023/08/06 12:15:54;;;;;;;0.10;0.10;;;;;;;;;;4931224;28;20056;-81
2023/08/06 12:18:20;;;;;;;0.13;0.13;;;;;;;;;;4935812;28;20079;-82
2023/08/06 12:20:46;;;;;;;0.10;0.10;;;;;;;;;;4961492;28;20043;-82
2023/08/06 12:23:15;;;;;;;0.00;0.00;;;;;;;;;;4949300;28;20418;-82
2023/08/06 12:25:41;;;;;;;0.05;0.05;;;;;;;;;;4957826;28;20027;-82
2023/08/06 12:28:08;;;;;;;0.90;0.50;;;;;;;;;;4951603;28;20438;-81
2023/08/06 12:30:34;;;;;;;0.10;0.10;;;;;;;;;;5000717;28;20367;-82
2023/08/06 12:33:00;;;;;;;0.00;0.00;;;;;;;;;;4938394;28;20024;-82
2023/08/06 12:35:26;;;;;;;0.10;0.10;;;;;;;;;;5011157;28;20037;-81
2023/08/06 12:37:54;;;;;;;0.00;0.00;;;;;;;;;;4958259;28;20024;-82
2023/08/06 12:40:20;;;;;;;0.20;0.20;;;;;;;;;;4948129;29;20031;-81
2023/08/06 12:42:46;;;;;;;0.00;0.00;;;;;;;;;;4945228;28;20074;-82
2023/08/06 12:45:12;;;;;;;0.10;0.10;;;;;;;;;;4946138;28;20031;-82
2023/08/06 12:47:38;;;;;;;0.03;0.03;;;;;;;;;;4947110;29;20032;-82
2023/08/06 12:50:04;;;;;;;0.00;0.00;;;;;;;;;;4938313;29;20038;-82
2023/08/06 12:52:30;;;;;;;0.10;0.10;;;;;;;;;;4950707;29;20035;-81
2023/08/06 12:54:56;;;;;;;0.17;0.17;;;;;;;;;;4944006;29;20472;-82
2023/08/06 12:57:22;;;;;;;0.10;0.10;;;;;;;;;;4931555;29;20150;-82
2023/08/06 12:59:48;;;;;;;0.05;0.05;;;;;;;;;;4934785;29;20176;-82
2023/08/06 13:02:14;;;;;;;0.10;0.10;;;;;;;;;;4949785;28;20146;-82
2023/08/06 13:04:40;;;;;;;0.00;0.00;;;;;;;;;;4931890;28;20454;-81
2023/08/06 13:07:06;;;;;;;0.00;0.00;;;;;;;;;;4950477;29;20034;-82
2023/08/06 13:09:33;;;;;;;0.10;0.10;;;;;;;;;;4935221;28;20036;-82
2023/08/06 13:11:59;;;;;;;0.10;0.10;;;;;;;;;;4931697;29;20032;-81
2023/08/06 13:14:25;;;;;;;0.00;0.00;;;;;;;;;;4943293;28;20044;-82
2023/08/06 13:16:52;;;;;;;0.40;0.40;;;;;;;;;;4934482;28;20402;-82
2023/08/06 13:19:18;;;;;;;0.10;0.10;;;;;;;;;;4948852;29;20035;-82
2023/08/06 13:21:46;;;;;;;0.00;0.00;;;;;;;;;;4936050;29;20031;-82
2023/08/06 13:24:12;;;;;;;0.00;0.00;;;;;;;;;;4944631;28;20039;-82
2023/08/06 13:26:39;;;;;;;0.65;0.45;;;;;;;;;;4953018;29;20384;-82
2023/08/06 13:29:07;;;;;;;0.00;0.00;;;;;;;;;;4954121;28;20078;-82
2023/08/06 13:31:33;;;;;;;0.10;0.10;;;;;;;;;;4953175;28;20034;-82
2023/08/06 13:33:59;;;;;;;0.00;0.00;;;;;;;;;;4988337;28;20045;-82
2023/08/06 13:36:25;;;;;;;0.10;0.10;;;;;;;;;;5034392;28;20018;-82
2023/08/06 13:38:51;;;;;;;0.00;0.00;;;;;;;;;;4985066;28;20102;-82
2023/08/06 13:41:17;;;;;;;0.35;0.30;;;;;;;;;;4953452;29;20085;-82
2023/08/06 13:43:44;;;;;;;0.00;0.00;;;;;;;;;;4952555;28;20031;-82
2023/08/06 13:46:14;;;;;;;0.10;0.10;;;;;;;;;;4953721;29;20046;-82
2023/08/06 13:48:40;;;;;;;0.75;0.35;;;;;;;;;;4952565;29;20081;-82
2023/08/06 13:51:06;;;;;;;0.57;0.57;;;;;;;;;;4953208;28;20031;-82
2023/08/06 13:53:32;;;;;;;0.10;0.10;;;;;;;;;;4942706;28;20036;-82
2023/08/06 13:55:58;;;;;;;0.00;0.00;;;;;;;;;;4943269;28;20463;-82
2023/08/06 13:58:25;;;;;;;0.10;0.10;;;;;;;;;;4951902;28;20077;-82
2023/08/06 14:00:52;;;;;;;0.10;0.10;;;;;;;;;;4952234;28;20027;-82
2023/08/06 14:03:19;;;;;;;0.00;0.00;;;;;;;;;;4944196;28;20035;-82
2023/08/06 14:05:45;;;;;;;0.20;0.20;;;;;;;;;;4952756;28;20027;-81
2023/08/06 14:08:11;;;;;;;0.10;0.10;;;;;;;;;;4949967;29;20039;-82
2023/08/06 14:10:37;;;;;;;0.10;0.10;;;;;;;;;;4975073;28;20033;-82
2023/08/06 14:13:03;;;;;;;0.05;0.05;;;;;;;;;;5034129;28;20017;-82
2023/08/06 14:15:29;;;;;;;0.20;0.05;;;;;;;;;;5001914;28;20409;-82
2023/08/06 14:17:55;;;;;;;0.50;0.50;;;;;;;;;;4948905;28;20028;-82
2023/08/06 14:20:21;;;;;;;0.00;0.00;;;;;;;;;;4938570;29;20157;-82
2023/08/06 14:22:47;;;;;;;0.00;0.00;;;;;;;;;;4951922;29;20368;-82
2023/08/06 14:25:13;;;;;;;0.10;0.10;;;;;;;;;;4952269;28;20023;-82
2023/08/06 14:27:39;;;;;;;0.30;0.10;;;;;;;;;;4950719;28;20031;-82
2023/08/06 14:30:06;;;;;;;0.32;0.25;;;;;;;;;;4952199;28;20467;-81
2023/08/06 14:32:32;;;;;;;0.08;0.08;;;;;;;;;;4957052;28;20055;-81
2023/08/06 14:34:58;;;;;;;0.05;0.05;;;;;;;;;;4949663;29;20039;-82
2023/08/06 14:37:25;;;;;;;0.00;0.00;;;;;;;;;;4952500;28;20030;-82
2023/08/06 14:39:51;;;;;;;0.00;0.00;;;;;;;;;;4944457;28;20023;-82